Time;durP1;ratioP1;P1;durP2;ratioP2;P2;SDS_P1;SDS_P2;PMS_P1;PMS_P2;Temp;Humidity;BMP_temperature;BMP_pressure;BME280_temperature;BME280_humidity;BME280_pressure;Samples;Min_cycle;Max_cycle;Signal;HPM_P1;HPM_P2
2023/06/20 00:00:39;;;;;;;14.55;12.98;;;;;;;21.10;97.07;101031.69;5010973;28;20478;-61
2023/06/20 00:03:04;;;;;;;14.57;12.20;;;;;;;21.09;97.39;101031.72;5011365;28;20065;-61
2023/06/20 00:05:29;;;;;;;12.77;11.57;;;;;;;21.09;97.47;101035.25;5011474;28;20033;-61
2023/06/20 00:07:55;;;;;;;13.77;12.48;;;;;;;21.08;97.46;101030.84;5010963;28;20038;-61
2023/06/20 00:10:20;;;;;;;14.13;12.93;;;;;;;21.06;96.88;101035.28;5011120;28;20105;-61
2023/06/20 00:12:46;;;;;;;14.02;12.45;;;;;;;21.06;97.28;101031.75;5010488;28;20091;-61
2023/06/20 00:15:11;;;;;;;13.43;12.13;;;;;;;21.03;97.75;101030.00;5010842;28;20030;-61
2023/06/20 00:17:38;;;;;;;13.57;12.38;;;;;;;21.02;98.24;101025.63;5011154;28;20022;-61
2023/06/20 00:20:07;;;;;;;12.98;11.77;;;;;;;21.02;98.44;101030.91;5010272;28;20025;-61
2023/06/20 00:22:35;;;;;;;13.00;11.90;;;;;;;20.98;96.83;101026.53;5010343;28;20044;-61
2023/06/20 00:25:04;;;;;;;13.80;12.32;;;;;;;20.98;97.94;101026.53;5011037;28;20107;-61
2023/06/20 00:27:29;;;;;;;13.52;12.07;;;;;;;20.97;98.36;101020.44;5010203;28;20029;-61
2023/06/20 00:29:54;;;;;;;13.70;12.27;;;;;;;20.96;98.22;101023.03;5009566;28;20045;-61
2023/06/20 00:32:20;;;;;;;14.68;12.48;;;;;;;20.91;97.61;101028.34;5009097;28;20029;-61
2023/06/20 00:34:45;;;;;;;14.00;12.65;;;;;;;20.89;97.94;101022.19;5008905;28;20068;-61
2023/06/20 00:37:10;;;;;;;13.50;12.23;;;;;;;20.86;97.98;101022.22;5009606;28;20029;-61
2023/06/20 00:39:36;;;;;;;13.50;12.27;;;;;;;20.83;97.40;101011.72;5010560;28;20029;-61
2023/06/20 00:42:01;;;;;;;14.05;12.52;;;;;;;20.85;98.41;101021.34;5009337;28;20014;-61
2023/06/20 00:44:26;;;;;;;13.57;12.18;;;;;;;20.83;98.40;101023.13;5010493;28;20124;-61
2023/06/20 00:46:52;;;;;;;14.68;12.80;;;;;;;20.80;97.85;101012.63;5010054;28;20129;-61
2023/06/20 00:49:17;;;;;;;16.15;14.00;;;;;;;20.78;97.35;101009.13;5010932;28;20377;-61
2023/06/20 00:51:43;;;;;;;14.25;12.85;;;;;;;20.78;98.48;101019.66;5009955;28;20469;-61
2023/06/20 00:54:09;;;;;;;14.32;13.00;;;;;;;20.76;98.21;101016.16;5010021;28;20032;-61
2023/06/20 00:56:34;;;;;;;15.68;14.10;;;;;;;20.76;99.26;101013.53;5009311;28;20057;-61
2023/06/20 00:59:02;;;;;;;15.18;13.65;;;;;;;20.76;98.40;101010.88;5009886;28;20033;-61
2023/06/20 01:01:31;;;;;;;14.68;13.25;;;;;;;20.76;98.04;101010.88;5010050;28;20032;-61
2023/06/20 01:03:58;;;;;;;14.32;12.93;;;;;;;20.75;97.25;101004.78;5010250;28;20047;-61
2023/06/20 01:06:35;;;;;;;13.93;12.63;;;;;;;20.73;98.68;101005.66;5010047;28;20029;-61
2023/06/20 01:09:22;;;;;;;14.43;12.65;;;;;;;20.70;97.86;100995.16;5009796;28;20036;-61
2023/06/20 01:12:03;;;;;;;14.18;12.88;;;;;;;20.70;98.28;100998.66;5010308;28;20026;-61
2023/06/20 01:15:03;;;;;;;13.63;12.23;;;;;;;20.67;98.28;100996.03;5009583;28;20030;-61
2023/06/20 01:17:33;;;;;;;13.23;12.00;;;;;;;20.68;96.68;100996.91;5009471;28;20033;-61
2023/06/20 01:20:10;;;;;;;13.60;12.30;;;;;;;20.67;96.92;101001.31;5009788;28;20034;-61
2023/06/20 01:22:56;;;;;;;13.48;12.30;;;;;;;20.64;96.23;100996.94;5008996;28;20032;-61
2023/06/20 01:25:31;;;;;;;13.90;12.40;;;;;;;20.61;95.40;100997.00;5009432;28;20137;-62
2023/06/20 01:28:09;;;;;;;13.45;12.20;;;;;;;20.62;95.87;100997.84;5009929;28;20029;-61
2023/06/20 01:30:41;;;;;;;13.70;12.30;;;;;;;20.61;95.14;100991.72;5008705;28;20030;-61
2023/06/20 01:33:08;;;;;;;12.85;11.73;;;;;;;20.60;95.17;100995.22;5009249;28;20014;-61
2023/06/20 01:35:36;;;;;;;13.40;12.20;;;;;;;20.58;94.57;100986.47;5009372;28;20033;-62
2023/06/20 01:38:07;;;;;;;13.38;12.00;;;;;;;20.61;94.73;100990.84;5009162;28;20140;-62
2023/06/20 01:40:33;;;;;;;14.50;12.85;;;;;;;20.59;95.32;100982.97;5009354;28;20030;-61
2023/06/20 01:42:59;;;;;;;15.10;12.75;;;;;;;20.61;93.99;100977.69;5008932;28;20021;-61
2023/06/20 01:45:28;;;;;;;13.25;11.98;;;;;;;20.57;94.13;100979.47;5008251;28;20655;-61
2023/06/20 01:47:58;;;;;;;13.18;11.88;;;;;;;20.58;93.79;100970.66;5009051;28;20069;-61
2023/06/20 01:50:27;;;;;;;12.43;11.20;;;;;;;20.57;93.41;100973.31;5009056;28;20022;-61
2023/06/20 01:52:53;;;;;;;13.45;12.25;;;;;;;20.55;92.83;100972.44;5008406;28;20018;-61
2023/06/20 01:55:21;;;;;;;13.70;12.40;;;;;;;20.54;92.60;100970.72;5009025;28;20022;-61
2023/06/20 01:57:48;;;;;;;13.88;12.40;;;;;;;20.52;92.95;100965.47;5008998;28;20037;-61
2023/06/20 02:00:15;;;;;;;12.27;11.20;;;;;;;20.52;92.80;100971.56;5009016;28;20061;-61
2023/06/20 02:02:43;;;;;;;13.60;12.30;;;;;;;20.53;91.89;100967.19;5008323;28;20040;-61
2023/06/20 02:05:11;;;;;;;12.85;11.73;;;;;;;20.52;91.38;100966.31;5009028;28;20433;-61
2023/06/20 02:07:38;;;;;;;13.10;11.82;;;;;;;20.53;91.58;100964.56;5009340;28;20026;-61
2023/06/20 02:10:05;;;;;;;13.10;11.93;;;;;;;20.54;91.82;100968.97;5009085;28;20025;-61
2023/06/20 02:12:32;;;;;;;14.02;12.73;;;;;;;20.53;92.15;100954.03;5008435;28;20552;-61
2023/06/20 02:14:58;;;;;;;13.20;12.00;;;;;;;20.52;91.07;100953.16;5008282;28;20018;-61
2023/06/20 02:17:24;;;;;;;13.32;12.18;;;;;;;20.50;90.94;100949.69;5007495;28;20100;-61
2023/06/20 02:19:50;;;;;;;16.80;12.60;;;;;;;20.48;90.45;100955.84;5008741;28;20022;-61
2023/06/20 02:22:19;;;;;;;13.15;11.85;;;;;;;20.47;91.00;100959.38;5007524;28;20034;-62
2023/06/20 02:24:47;;;;;;;13.68;11.63;;;;;;;20.45;90.40;100955.88;5000248;28;20466;-61
2023/06/20 02:27:17;;;;;;;13.50;11.90;;;;;;;20.45;90.42;100958.50;5003970;28;20101;-61
2023/06/20 02:29:43;;;;;;;12.48;11.27;;;;;;;20.44;90.84;100959.38;5008222;28;20033;-61
2023/06/20 02:32:13;;;;;;;13.05;11.82;;;;;;;20.41;90.50;100955.03;5008236;28;20359;-61
2023/06/20 02:34:42;;;;;;;13.50;12.18;;;;;;;20.40;90.43;100962.03;5007886;28;20488;-61
2023/06/20 02:37:10;;;;;;;13.80;11.45;;;;;;;20.37;91.78;100958.53;5008132;28;20028;-61
2023/06/20 02:39:35;;;;;;;12.32;11.23;;;;;;;20.32;90.93;100966.47;5008632;28;20043;-62
2023/06/20 02:42:00;;;;;;;13.48;12.18;;;;;;;20.28;91.14;100955.09;5007801;28;20018;-61
2023/06/20 02:44:26;;;;;;;15.82;11.65;;;;;;;20.24;92.10;100960.38;5008365;28;20037;-61
2023/06/20 02:47:12;;;;;;;13.98;12.63;;;;;;;20.20;92.91;100961.31;5008008;28;20025;-61
2023/06/20 02:49:45;;;;;;;13.55;12.20;;;;;;;20.14;92.73;100960.47;5008076;28;20040;-61
2023/06/20 02:52:22;;;;;;;13.50;12.13;;;;;;;20.09;92.71;100957.00;4996281;28;20428;-61
2023/06/20 02:55:01;;;;;;;14.10;12.75;;;;;;;20.08;92.79;100964.84;5007917;28;20383;-62
2023/06/20 02:57:29;;;;;;;13.63;12.13;;;;;;;20.04;93.57;100954.34;5007558;28;20034;-62
2023/06/20 03:00:09;;;;;;;13.40;11.70;;;;;;;20.04;93.87;100951.69;5008054;28;20017;-62
2023/06/20 03:02:44;;;;;;;13.47;12.17;;;;;;;20.03;93.77;100959.59;5008352;28;20351;-61
2023/06/20 03:05:13;;;;;;;13.82;12.38;;;;;;;19.98;93.80;100954.38;5007683;28;20120;-61
2023/06/20 03:07:41;;;;;;;13.48;12.23;;;;;;;19.96;94.01;100961.41;5007640;28;20169;-62
2023/06/20 03:10:08;;;;;;;12.32;11.07;;;;;;;19.95;94.47;100954.38;5007482;28;20065;-61
2023/06/20 03:12:33;;;;;;;12.27;11.15;;;;;;;19.92;94.45;100951.78;5008184;28;20481;-62
2023/06/20 03:14:59;;;;;;;13.27;12.07;;;;;;;19.89;95.10;100946.53;5007966;28;20026;-61
2023/06/20 03:17:25;;;;;;;13.50;12.40;;;;;;;19.87;94.56;100940.41;5007312;28;20090;-62
2023/06/20 03:19:50;;;;;;;13.57;12.38;;;;;;;19.86;95.11;100934.28;5006098;28;20022;-61
2023/06/20 03:22:16;;;;;;;13.63;12.23;;;;;;;19.87;94.75;100941.28;5005206;28;20368;-61
2023/06/20 03:24:41;;;;;;;14.52;12.35;;;;;;;19.84;95.12;100936.03;5006177;28;20042;-61
2023/06/20 03:27:07;;;;;;;13.25;11.95;;;;;;;19.83;95.70;100933.41;5006431;28;20029;-62
2023/06/20 03:29:32;;;;;;;13.45;12.05;;;;;;;19.80;95.88;100937.84;5005598;28;20026;-62
2023/06/20 03:31:58;;;;;;;14.40;13.10;;;;;;;19.76;97.02;100941.34;5005026;28;20034;-61
2023/06/20 03:34:23;;;;;;;13.10;11.82;;;;;;;19.72;96.87;100949.22;5005091;28;20026;-61
2023/06/20 03:36:49;;;;;;;13.95;12.65;;;;;;;19.63;97.35;100943.16;5005206;28;20478;-62
2023/06/20 03:39:14;;;;;;;14.57;13.27;;;;;;;19.61;97.45;100944.91;5005992;28;20382;-62
2023/06/20 03:41:39;;;;;;;14.27;13.02;;;;;;;19.58;97.57;100946.66;5007359;28;20036;-62
2023/06/20 03:44:04;;;;;;;14.10;12.70;;;;;;;19.55;98.59;100960.72;5007551;28;20036;-62
2023/06/20 03:46:30;;;;;;;15.18;12.63;;;;;;;19.51;99.04;100964.22;5006803;28;20053;-61
2023/06/20 03:48:55;;;;;;;14.45;13.05;;;;;;;19.48;100.00;100969.50;5007297;28;20042;-61
2023/06/20 03:51:20;;;;;;;13.60;12.23;;;;;;;19.45;100.00;100973.00;5007383;28;20030;-61
2023/06/20 03:53:45;;;;;;;14.38;12.95;;;;;;;19.43;100.00;100978.25;5007640;28;20021;-62
2023/06/20 03:56:11;;;;;;;13.57;12.18;;;;;;;19.43;100.00;100983.50;5007490;28;20329;-61
2023/06/20 03:58:36;;;;;;;13.52;12.27;;;;;;;19.46;100.00;100981.75;5007011;28;20371;-61
2023/06/20 04:01:01;;;;;;;13.27;11.98;;;;;;;19.47;100.00;100983.50;5007636;28;20037;-61
2023/06/20 04:03:28;;;;;;;13.32;12.07;;;;;;;19.48;100.00;100974.75;5007373;28;20041;-61
2023/06/20 04:05:54;;;;;;;12.65;11.55;;;;;;;19.48;100.00;100985.25;5007467;28;20032;-61
2023/06/20 04:08:19;;;;;;;13.57;12.23;;;;;;;19.48;100.00;100986.09;5006682;28;20037;-61
2023/06/20 04:10:44;;;;;;;13.27;11.93;;;;;;;19.48;100.00;100983.47;4989695;28;20078;-61
2023/06/20 04:13:10;;;;;;;13.65;12.45;;;;;;;19.51;100.00;100993.13;5007578;28;20453;-62
2023/06/20 04:15:36;;;;;;;13.82;12.43;;;;;;;19.53;100.00;100981.75;5006946;28;20029;-63
2023/06/20 04:18:01;;;;;;;14.90;13.40;;;;;;;19.55;100.00;100981.72;5007249;28;20465;-64
2023/06/20 04:20:26;;;;;;;13.73;12.50;;;;;;;19.58;100.00;100981.72;5006628;28;20493;-62
2023/06/20 04:22:51;;;;;;;13.63;12.35;;;;;;;19.58;100.00;100971.19;5006701;28;20026;-64
2023/06/20 04:25:17;;;;;;;13.27;12.07;;;;;;;19.59;100.00;100962.44;5007073;28;20061;-63
2023/06/20 04:27:43;;;;;;;13.80;12.50;;;;;;;19.57;100.00;100961.59;5006997;28;20046;-63
2023/06/20 04:30:08;;;;;;;12.93;11.73;;;;;;;19.56;100.00;100957.19;5006551;28;21081;-63
2023/06/20 04:32:34;;;;;;;14.65;13.13;;;;;;;19.55;100.00;100943.16;4994287;28;20022;-63
2023/06/20 04:35:00;;;;;;;13.48;12.18;;;;;;;19.56;100.00;100951.94;5006834;28;20590;-63
2023/06/20 04:37:25;;;;;;;14.07;12.45;;;;;;;19.57;100.00;100953.69;5007568;28;20022;-64
2023/06/20 04:39:50;;;;;;;14.57;13.07;;;;;;;19.57;100.00;100958.97;5007001;28;20045;-63
2023/06/20 04:42:16;;;;;;;14.35;13.05;;;;;;;19.61;100.00;100960.66;5009510;28;20461;-63
2023/06/20 04:44:44;;;;;;;15.00;13.73;;;;;;;19.64;100.00;100958.06;5010300;28;20037;-61
2023/06/20 04:47:12;;;;;;;14.07;12.73;;;;;;;19.70;100.00;100958.91;5010074;28;20123;-63
2023/06/20 04:49:40;;;;;;;15.55;14.15;;;;;;;19.76;100.00;100950.97;5010372;28;20469;-64
2023/06/20 04:52:08;;;;;;;14.93;13.52;;;;;;;19.84;100.00;100946.53;5010525;28;20025;-63
2023/06/20 04:54:33;;;;;;;14.68;13.38;;;;;;;19.91;100.00;100953.53;5009914;28;20363;-63
2023/06/20 04:56:58;;;;;;;15.43;14.02;;;;;;;19.96;98.98;100950.88;4992618;28;20080;-62
2023/06/20 04:59:24;;;;;;;15.68;14.20;;;;;;;20.00;99.76;100949.13;5009952;28;20093;-62
2023/06/20 05:01:51;;;;;;;15.63;14.13;;;;;;;20.03;99.15;100951.72;5010055;28;20072;-63
2023/06/20 05:04:19;;;;;;;16.05;14.45;;;;;;;20.09;99.08;100954.34;5003526;28;20068;-62
2023/06/20 05:06:46;;;;;;;16.52;14.88;;;;;;;20.11;99.47;100944.66;5010000;28;20428;-63
2023/06/20 05:09:11;;;;;;;16.60;15.07;;;;;;;20.13;99.15;100953.44;5009988;28;20053;-63
2023/06/20 05:11:37;;;;;;;15.40;14.00;;;;;;;20.14;100.00;100944.69;5010213;28;20514;-63
2023/06/20 05:14:02;;;;;;;15.77;14.38;;;;;;;20.22;99.47;100931.44;5009888;28;20034;-62
2023/06/20 05:16:28;;;;;;;15.93;14.32;;;;;;;20.32;99.66;100929.66;5009735;28;20100;-63
2023/06/20 05:18:53;;;;;;;16.15;14.70;;;;;;;20.42;100.00;100940.09;5009857;28;20485;-62
2023/06/20 05:21:18;;;;;;;16.77;15.13;;;;;;;20.51;100.00;100930.38;5009783;28;20025;-63
2023/06/20 05:23:44;;;;;;;16.65;14.95;;;;;;;20.62;100.00;100929.41;5009692;28;20513;-62
2023/06/20 05:26:10;;;;;;;20.60;16.58;;;;;;;20.73;100.00;100926.69;5009710;28;20026;-63
2023/06/20 05:28:35;;;;;;;17.00;15.40;;;;;;;20.83;100.00;100922.22;5015604;28;20029;-62
2023/06/20 05:31:01;;;;;;;17.08;15.57;;;;;;;20.95;99.53;100921.25;5020993;28;20040;-63
2023/06/20 05:33:26;;;;;;;17.75;15.95;;;;;;;21.02;98.70;100917.66;5023935;28;20026;-63
2023/06/20 05:35:51;;;;;;;16.75;15.25;;;;;;;21.13;98.62;100920.19;5006744;28;20041;-63
2023/06/20 05:38:16;;;;;;;16.73;15.23;;;;;;;21.24;98.88;100917.44;5018553;28;20454;-62
2023/06/20 05:40:42;;;;;;;16.70;15.20;;;;;;;21.37;98.03;100907.63;5007726;28;20061;-63
2023/06/20 05:43:08;;;;;;;17.20;15.60;;;;;;;21.45;95.83;100902.22;5020246;28;20090;-63
2023/06/20 05:45:33;;;;;;;20.25;18.25;;;;;;;21.54;95.79;100909.16;5010378;28;20486;-63
2023/06/20 05:47:58;;;;;;;17.13;15.60;;;;;;;21.62;95.24;100904.66;5009134;28;20042;-64
2023/06/20 05:50:25;;;;;;;17.77;16.17;;;;;;;21.67;96.02;100905.47;5008564;28;20026;-62
2023/06/20 05:52:51;;;;;;;16.67;15.18;;;;;;;21.75;95.54;100910.63;5008198;28;20018;-62
2023/06/20 05:55:16;;;;;;;15.98;14.35;;;;;;;21.79;96.16;100906.19;5009556;28;20029;-62
2023/06/20 05:57:42;;;;;;;15.45;13.98;;;;;;;21.82;94.99;100908.81;5007920;28;20026;-62
2023/06/20 06:00:12;;;;;;;14.73;13.43;;;;;;;21.80;95.95;100914.09;5007123;28;20109;-62
2023/06/20 06:02:39;;;;;;;14.38;13.07;;;;;;;21.77;96.32;100908.84;5007256;28;20359;-62
2023/06/20 06:05:04;;;;;;;13.35;12.13;;;;;;;21.79;97.01;100920.25;5007314;28;20026;-62
2023/06/20 06:07:30;;;;;;;13.88;12.63;;;;;;;21.81;98.36;100922.88;5007403;28;20596;-62
2023/06/20 06:09:55;;;;;;;13.50;12.20;;;;;;;21.85;98.24;100929.00;5006990;28;20022;-62
2023/06/20 06:12:21;;;;;;;14.20;12.95;;;;;;;21.89;99.31;100928.06;5007969;28;20153;-62
2023/06/20 06:14:47;;;;;;;12.38;11.18;;;;;;;21.98;99.49;100935.84;5009072;28;20053;-62
2023/06/20 06:17:13;;;;;;;12.68;11.57;;;;;;;22.09;99.21;100935.66;5009121;28;20026;-62
2023/06/20 06:19:38;;;;;;;12.05;10.85;;;;;;;22.23;98.15;100935.50;5008572;28;20030;-61
2023/06/20 06:22:04;;;;;;;12.27;11.18;;;;;;;22.35;98.37;100930.91;5008585;28;20052;-62
2023/06/20 06:24:29;;;;;;;9.25;8.43;;;;;;;22.42;97.11;100924.63;5008829;28;20061;-62
2023/06/20 06:26:54;;;;;;;10.07;9.07;;;;;;;22.44;97.06;100920.19;5008880;28;20056;-62
2023/06/20 06:29:20;;;;;;;10.57;9.68;;;;;;;22.43;97.21;100921.94;5008574;28;20025;-62
2023/06/20 06:31:45;;;;;;;9.18;8.38;;;;;;;22.38;97.81;100913.25;5007996;28;20026;-62
2023/06/20 06:34:16;;;;;;;9.70;8.88;;;;;;;22.37;98.43;100915.91;5008298;28;20025;-62
2023/06/20 06:36:42;;;;;;;;;;;;;;;22.42;99.21;100919.34;5008711;28;20560;-62
2023/06/20 06:39:11;;;;;;;9.63;8.70;;;;;;;22.45;98.61;100929.84;4996069;28;19909;-62
2023/06/20 06:41:37;;;;;;;9.35;8.50;;;;;;;22.48;98.39;100937.72;5008325;28;20045;-61
2023/06/20 06:44:02;;;;;;;9.25;8.27;;;;;;;22.50;98.33;100938.59;5007948;28;20030;-62
2023/06/20 06:46:27;;;;;;;8.80;7.95;;;;;;;22.52;99.17;100936.75;5008165;28;20332;-62
2023/06/20 06:48:53;;;;;;;7.65;6.95;;;;;;;22.55;99.85;100933.22;5007939;28;20050;-62
2023/06/20 06:51:18;;;;;;;8.68;7.55;;;;;;;22.61;99.13;100929.59;5008335;28;20480;-62
2023/06/20 06:53:43;;;;;;;7.82;7.03;;;;;;;22.70;99.23;100932.13;5007578;28;20026;-62
2023/06/20 06:56:08;;;;;;;7.55;6.60;;;;;;;22.88;99.26;100930.06;5008344;28;20022;-62
2023/06/20 06:58:34;;;;;;;7.18;6.47;;;;;;;23.07;98.78;100921.75;5008283;28;20049;-62
2023/06/20 07:00:59;;;;;;;7.15;6.45;;;;;;;23.26;97.18;100927.59;5008088;28;20133;-62
2023/06/20 07:03:24;;;;;;;7.57;6.88;;;;;;;23.39;96.45;100921.13;5007014;28;20390;-61
2023/06/20 07:05:50;;;;;;;7.20;6.60;;;;;;;23.49;95.74;100919.19;5008220;28;20461;-62
2023/06/20 07:08:15;;;;;;;7.20;6.60;;;;;;;23.62;95.33;100930.38;5007743;28;20026;-61
2023/06/20 07:10:40;;;;;;;6.38;5.88;;;;;;;23.73;94.13;100927.50;5008404;28;20033;-63
2023/06/20 07:13:06;;;;;;;7.40;6.68;;;;;;;23.80;93.75;100927.38;5008245;28;20188;-63
2023/06/20 07:15:32;;;;;;;6.90;6.30;;;;;;;23.87;93.74;100921.91;5007683;28;20037;-62
2023/06/20 07:17:57;;;;;;;5.40;5.00;;;;;;;24.03;93.78;100923.34;5008053;28;20029;-62
2023/06/20 07:20:23;;;;;;;5.88;5.30;;;;;;;24.18;91.73;100922.06;5007761;28;20025;-62
2023/06/20 07:22:48;;;;;;;4.78;4.28;;;;;;;24.30;91.85;100916.50;5007294;28;20184;-61
2023/06/20 07:25:13;;;;;;;5.82;5.22;;;;;;;24.46;91.52;100922.34;5007389;28;20038;-62
2023/06/20 07:27:38;;;;;;;5.38;4.88;;;;;;;24.58;88.62;100909.66;5006626;28;20030;-62
2023/06/20 07:30:04;;;;;;;4.88;4.50;;;;;;;24.66;88.24;100912.97;5007475;28;20064;-62
2023/06/20 07:32:30;;;;;;;5.75;5.25;;;;;;;24.76;88.08;100916.25;5007467;28;20096;-62
2023/06/20 07:34:55;;;;;;;7.20;5.35;;;;;;;24.92;88.02;100913.19;5007472;28;20025;-62
2023/06/20 07:37:20;;;;;;;5.20;4.75;;;;;;;25.05;87.96;100914.66;5007215;28;20030;-63
2023/06/20 07:39:46;;;;;;;5.25;4.85;;;;;;;25.21;86.78;100908.91;5007763;28;20087;-62
2023/06/20 07:42:12;;;;;;;6.13;5.63;;;;;;;25.30;84.11;100897.16;5006911;28;20110;-61
2023/06/20 07:44:38;;;;;;;5.47;5.00;;;;;;;25.40;85.05;100893.31;5007729;28;20109;-62
2023/06/20 07:47:03;;;;;;;4.53;4.18;;;;;;;25.47;84.67;100888.72;5007131;28;20058;-62
2023/06/20 07:49:28;;;;;;;6.20;5.70;;;;;;;25.55;83.05;100891.13;5007400;28;20080;-62
2023/06/20 07:51:54;;;;;;;5.95;5.47;;;;;;;25.60;83.62;100894.50;5006756;28;20028;-62
2023/06/20 07:54:19;;;;;;;6.78;6.18;;;;;;;25.62;81.28;100892.66;5007515;28;20022;-62
2023/06/20 07:56:45;;;;;;;6.47;5.88;;;;;;;25.54;81.62;100906.16;5007037;28;20116;-63
2023/06/20 07:59:10;;;;;;;6.47;5.88;;;;;;;25.63;82.97;100910.34;5007677;28;20026;-62
2023/06/20 08:01:35;;;;;;;6.15;5.57;;;;;;;25.76;81.33;100916.16;5006384;28;20358;-62
2023/06/20 08:04:01;;;;;;;6.57;5.28;;;;;;;25.95;82.12;100914.72;5007654;28;20398;-63
2023/06/20 08:06:26;;;;;;;5.40;5.00;;;;;;;26.09;81.30;100907.16;5006934;28;20068;-62
2023/06/20 08:08:51;;;;;;;5.03;4.63;;;;;;;26.12;78.15;100903.56;5007286;28;20080;-62
2023/06/20 08:11:23;;;;;;;5.85;5.25;;;;;;;26.21;77.97;100910.34;5006988;28;20026;-63
2023/06/20 08:13:49;;;;;;;5.38;4.88;;;;;;;26.31;79.08;100911.78;5007690;28;20483;-63
2023/06/20 08:16:15;;;;;;;5.88;5.30;;;;;;;26.34;78.47;100902.81;5008622;28;20025;-62
2023/06/20 08:18:41;;;;;;;4.93;4.40;;;;;;;26.48;78.05;100903.25;5011142;28;20604;-63
2023/06/20 08:21:07;;;;;;;4.50;4.10;;;;;;;26.62;77.25;100900.13;5011035;28;20026;-63
2023/06/20 08:23:32;;;;;;;4.80;4.25;;;;;;;26.80;75.79;100896.88;5010511;28;20478;-62
2023/06/20 08:25:57;;;;;;;4.82;4.40;;;;;;;26.90;74.06;100900.06;5010891;28;20064;-62
2023/06/20 08:28:24;;;;;;;4.95;4.47;;;;;;;27.03;75.33;100896.06;5011006;28;20038;-61
2023/06/20 08:30:50;;;;;;;4.40;4.10;;;;;;;27.16;74.92;100903.59;5010732;28;20521;-63
2023/06/20 08:33:16;;;;;;;4.72;4.30;;;;;;;27.13;72.59;100899.25;5010813;28;20025;-62
2023/06/20 08:35:41;;;;;;;4.30;3.95;;;;;;;27.23;73.80;100904.25;5010285;28;20037;-63
2023/06/20 08:38:06;;;;;;;4.80;4.40;;;;;;;27.17;72.23;100905.31;5010536;28;20033;-63
2023/06/20 08:40:34;;;;;;;4.32;4.00;;;;;;;27.21;72.33;100906.97;5010615;28;20053;-62
2023/06/20 08:43:00;;;;;;;4.22;3.80;;;;;;;27.34;73.44;100904.72;5010324;28;20036;-63
2023/06/20 08:45:27;;;;;;;3.65;3.30;;;;;;;27.52;72.45;100908.47;5009832;28;20021;-62
2023/06/20 08:47:58;;;;;;;3.90;3.47;;;;;;;27.66;70.58;100902.59;5010331;28;20383;-63
2023/06/20 08:50:27;;;;;;;3.70;3.30;;;;;;;27.77;69.80;100904.88;5010416;28;20025;-63
2023/06/20 08:52:55;;;;;;;3.67;3.38;;;;;;;27.84;68.51;100902.81;5010003;28;20022;-63
2023/06/20 08:55:21;;;;;;;3.60;3.33;;;;;;;27.87;68.87;100904.47;4997994;28;20026;-63
2023/06/20 08:57:47;;;;;;;3.28;3.08;;;;;;;28.03;67.57;100900.28;5009601;28;20030;-62
2023/06/20 09:00:23;;;;;;;5.03;3.47;;;;;;;27.98;67.32;100896.94;5010415;28;20104;-62
2023/06/20 09:02:52;;;;;;;3.63;3.28;;;;;;;27.89;68.63;100892.84;5009667;28;20030;-62
2023/06/20 09:05:17;;;;;;;3.50;3.20;;;;;;;27.88;68.22;100890.25;5010645;28;20029;-62
2023/06/20 09:07:43;;;;;;;4.20;3.50;;;;;;;27.85;68.32;100887.72;5010053;28;20030;-63
2023/06/20 09:10:17;;;;;;;3.75;3.47;;;;;;;27.81;67.27;100889.66;5009520;28;20466;-63
2023/06/20 09:12:51;;;;;;;4.53;3.65;;;;;;;27.81;67.80;100885.16;5009624;28;20025;-63
2023/06/20 09:15:22;;;;;;;3.70;3.40;;;;;;;27.91;69.50;100890.13;5009836;28;20038;-63
2023/06/20 09:17:51;;;;;;;4.00;3.08;;;;;;;27.99;67.89;100890.66;5009454;28;20070;-63
2023/06/20 09:20:17;;;;;;;4.15;3.70;;;;;;;27.97;67.06;100889.91;5009943;28;20340;-63
2023/06/20 09:22:42;;;;;;;4.00;3.60;;;;;;;28.17;67.34;100896.19;5009315;28;20057;-63
2023/06/20 09:25:09;;;;;;;3.80;3.50;;;;;;;28.40;66.39;100899.72;5009863;28;20087;-63
2023/06/20 09:27:40;;;;;;;3.50;3.20;;;;;;;28.52;64.17;100901.84;5009222;28;20030;-63
2023/06/20 09:30:05;;;;;;;;;;;;;;;28.72;66.50;100907.22;5010127;28;20061;-62
2023/06/20 09:32:35;;;;;;;3.95;3.55;;;;;;;28.89;63.04;100909.16;5009054;28;20385;-63
2023/06/20 09:35:05;;;;;;;2.95;2.75;;;;;;;28.88;62.81;100902.09;5009290;28;20116;-63
2023/06/20 09:37:37;;;;;;;3.10;2.90;;;;;;;28.85;61.15;100902.22;5009529;28;20440;-63
2023/06/20 09:40:08;;;;;;;3.60;3.30;;;;;;;29.04;62.03;100912.09;5008945;28;20034;-62
2023/06/20 09:42:33;;;;;;;3.35;3.05;;;;;;;29.23;61.69;100904.13;5009291;28;20030;-63
2023/06/20 09:44:58;;;;;;;3.42;2.88;;;;;;;29.36;61.03;100904.41;5009185;28;20029;-63
2023/06/20 09:47:24;;;;;;;3.50;3.20;;;;;;;29.48;60.87;100898.47;5009351;28;20133;-63
2023/06/20 09:49:52;;;;;;;3.28;2.97;;;;;;;29.48;59.24;100895.81;5009278;28;20033;-63
2023/06/20 09:52:18;;;;;;;3.08;2.80;;;;;;;29.55;59.21;100903.53;5009276;28;20026;-63
2023/06/20 09:55:00;;;;;;;2.88;2.67;;;;;;;29.65;59.99;100894.19;5009148;28;20051;-63
2023/06/20 09:57:45;;;;;;;3.22;3.03;;;;;;;29.76;60.12;100892.78;5009008;28;20028;-62
2023/06/20 10:00:14;;;;;;;3.35;3.15;;;;;;;29.75;58.27;100891.94;5008782;28;20059;-63
2023/06/20 10:02:43;;;;;;;3.25;2.90;;;;;;;29.58;55.58;100896.25;5008932;28;20446;-62
2023/06/20 10:05:09;;;;;;;2.55;2.42;;;;;;;29.50;56.80;100898.44;5009278;28;20034;-63
2023/06/20 10:07:37;;;;;;;2.78;2.58;;;;;;;29.62;57.35;100894.34;5008625;28;20032;-63
2023/06/20 10:10:03;;;;;;;4.63;2.70;;;;;;;29.66;57.11;100887.06;5009141;28;20029;-63
2023/06/20 10:12:29;;;;;;;2.92;2.72;;;;;;;29.74;57.59;100894.69;5009359;28;20033;-62
2023/06/20 10:14:55;;;;;;;2.88;2.58;;;;;;;29.92;56.35;100891.09;5009196;28;20385;-63
2023/06/20 10:17:32;;;;;;;2.65;2.45;;;;;;;30.01;56.78;100881.78;5008841;28;20342;-62
2023/06/20 10:19:59;;;;;;;2.60;2.40;;;;;;;30.04;55.50;100884.28;5009157;28;20378;-63
2023/06/20 10:22:43;;;;;;;2.75;2.55;;;;;;;30.16;54.07;100874.81;5008152;28;20492;-63
2023/06/20 10:25:14;;;;;;;2.67;2.47;;;;;;;30.36;54.18;100872.09;5008690;28;20445;-63
2023/06/20 10:27:59;;;;;;;2.45;2.25;;;;;;;30.56;54.04;100871.06;5008527;28;20032;-63
2023/06/20 10:30:46;;;;;;;2.72;2.53;;;;;;;30.53;52.56;100865.84;5007876;28;20091;-63
2023/06/20 10:33:12;;;;;;;2.95;2.47;;;;;;;30.65;53.80;100859.00;5008774;28;20026;-63
2023/06/20 10:35:54;;;;;;;2.72;2.47;;;;;;;30.71;52.19;100852.47;5008593;28;20431;-62
2023/06/20 10:38:20;;;;;;;2.65;2.20;;;;;;;30.74;53.21;100847.84;5007359;28;20173;-63
2023/06/20 10:40:45;;;;;;;2.70;2.50;;;;;;;30.81;52.48;100843.00;5008312;28;20529;-63
2023/06/20 10:43:18;;;;;;;1.67;1.58;;;;;;;30.59;48.16;100837.94;5008494;28;20067;-63
2023/06/20 10:45:57;;;;;;;2.63;1.90;;;;;;;30.75;49.81;100837.97;5008728;28;20473;-63
2023/06/20 10:48:24;;;;;;;3.17;2.08;;;;;;;30.61;48.25;100834.25;5008100;28;20048;-64
2023/06/20 10:50:51;;;;;;;2.78;2.08;;;;;;;30.76;49.58;100837.06;5008063;28;20084;-63
2023/06/20 10:53:16;;;;;;;2.08;1.98;;;;;;;30.85;48.66;100831.22;5007913;28;20814;-63
2023/06/20 10:55:42;;;;;;;4.95;2.47;;;;;;;30.54;47.46;100831.06;5008490;28;20132;-63
2023/06/20 10:58:07;;;;;;;2.33;2.13;;;;;;;30.51;48.18;100833.03;5008002;28;20025;-62
2023/06/20 11:00:32;;;;;;;1.98;1.80;;;;;;;30.72;49.56;100838.16;5008209;28;20026;-63
2023/06/20 11:02:57;;;;;;;2.00;1.90;;;;;;;30.79;48.22;100834.22;5008028;28;20029;-63
2023/06/20 11:05:28;;;;;;;2.30;2.00;;;;;;;30.94;48.39;100826.34;5008487;28;20029;-64
2023/06/20 11:08:05;;;;;;;2.10;2.00;;;;;;;31.03;48.84;100820.50;5007424;28;20030;-63
2023/06/20 11:10:35;;;;;;;2.05;1.85;;;;;;;31.12;48.21;100817.28;5008369;28;20417;-63
2023/06/20 11:13:03;;;;;;;2.88;2.50;;;;;;;31.08;48.07;100813.06;5007659;28;20033;-63
2023/06/20 11:15:30;;;;;;;2.45;2.03;;;;;;;31.26;47.50;100805.81;5007897;28;20116;-62